createdAt,value
2018-06-17T00:01:15.170Z,100867.81
2018-06-17T00:03:45.476Z,100877.04
2018-06-17T00:06:15.386Z,100868.48
2018-06-17T00:08:45.735Z,100866.22
2018-06-17T00:11:15.631Z,100867.81
2018-06-17T00:13:46.396Z,100882.59
2018-06-17T00:16:16.816Z,100887.05
2018-06-17T00:18:46.565Z,100891.30
2018-06-17T00:21:16.341Z,100886.23
2018-06-17T00:23:46.061Z,100881.55
2018-06-17T00:26:16.312Z,100884.30
2018-06-17T00:28:46.012Z,100890.25
2018-06-17T00:31:15.809Z,100898.44
2018-06-17T00:33:46.217Z,100890.89
2018-06-17T00:36:15.979Z,100893.16
2018-06-17T00:38:45.692Z,100886.31
2018-06-17T00:41:15.473Z,100888.50
2018-06-17T00:43:45.248Z,100895.66
2018-06-17T00:46:14.828Z,100894.78
2018-06-17T00:48:44.774Z,100888.72
2018-06-17T00:51:14.730Z,100893.98
2018-06-17T00:53:46.233Z,100890.00
2018-06-17T00:56:16.046Z,100883.45
2018-06-17T00:58:45.726Z,100891.30
2018-06-17T01:01:16.560Z,100890.27
2018-06-17T01:03:46.344Z,100892.77
2018-06-17T01:06:16.215Z,100878.04
2018-06-17T01:08:46.545Z,100880.63
2018-06-17T01:11:17.207Z,100885.97
2018-06-17T01:13:46.944Z,100881.06
2018-06-17T01:16:16.752Z,100890.22
2018-06-17T01:18:46.842Z,100896.52
2018-06-17T01:21:16.590Z,100900.08
2018-06-17T01:23:46.678Z,100901.52
2018-06-17T01:26:17.328Z,100899.12
2018-06-17T01:28:47.271Z,100902.64
2018-06-17T01:31:17.215Z,100900.34
2018-06-17T01:33:48.850Z,100912.16
2018-06-17T01:36:18.891Z,100910.30
2018-06-17T01:38:48.922Z,100907.32
2018-06-17T01:41:20.341Z,100903.70
2018-06-17T01:43:51.100Z,100908.33
2018-06-17T01:46:22.580Z,100910.73
2018-06-17T01:48:52.406Z,100919.73
2018-06-17T01:51:22.115Z,100911.75
2018-06-17T01:53:51.829Z,100912.20
2018-06-17T01:56:22.608Z,100910.48
2018-06-17T01:58:53.028Z,100911.89
2018-06-17T02:01:22.818Z,100919.25
2018-06-17T02:03:57.724Z,100921.11
2018-06-17T02:06:32.500Z,100908.53
2018-06-17T02:09:07.237Z,100904.84
2018-06-17T02:11:41.265Z,100908.16
2018-06-17T02:14:16.067Z,100907.89
2018-06-17T02:16:46.042Z,100908.67
2018-06-17T02:19:15.765Z,100913.74
2018-06-17T02:21:45.472Z,100920.94
2018-06-17T02:24:15.178Z,100932.55
2018-06-17T02:26:45.129Z,100938.58
2018-06-17T02:29:14.546Z,100927.75
2018-06-17T02:31:45.013Z,100934.05
2018-06-17T02:34:14.852Z,100935.35
2018-06-17T02:36:44.906Z,100924.91
2018-06-17T02:39:14.742Z,100923.61
2018-06-17T02:41:44.419Z,100917.75
2018-06-17T02:44:14.072Z,100912.23
2018-06-17T02:46:49.012Z,100919.70
2018-06-17T02:49:25.454Z,100927.52
2018-06-17T02:52:00.172Z,100927.32
2018-06-17T02:54:34.845Z,100926.78
2018-06-17T02:57:05.544Z,100930.44
2018-06-17T02:59:35.702Z,100934.69
2018-06-17T03:02:07.197Z,100934.03
2018-06-17T03:04:37.198Z,100929.62
2018-06-17T03:07:08.168Z,100942.17
2018-06-17T03:09:38.019Z,100941.54
2018-06-17T03:12:08.106Z,100931.96
2018-06-17T03:14:37.815Z,100937.77
2018-06-17T03:17:07.743Z,100944.65
2018-06-17T03:19:37.456Z,100951.28
2018-06-17T03:22:08.498Z,100940.74
2018-06-17T03:24:44.100Z,100938.23
2018-06-17T03:27:19.102Z,100934.88
2018-06-17T03:29:54.198Z,100931.96
2018-06-17T03:32:30.170Z,100928.06
2018-06-17T03:35:06.489Z,100928.13
2018-06-17T03:37:36.858Z,100929.48
2018-06-17T03:40:09.388Z,100932.63
2018-06-17T03:42:39.054Z,100931.87
2018-06-17T03:45:10.051Z,100934.95
2018-06-17T03:47:39.921Z,100938.59
2018-06-17T03:50:09.646Z,100940.90
2018-06-17T03:52:41.175Z,100942.70
2018-06-17T03:55:10.951Z,100949.56
2018-06-17T03:57:40.733Z,100951.17
2018-06-17T04:00:10.504Z,100951.15
2018-06-17T04:02:40.170Z,100951.94
2018-06-17T04:05:15.110Z,100954.39
2018-06-17T04:07:45.054Z,100958.89
2018-06-17T04:10:14.981Z,100959.63
2018-06-17T04:12:44.901Z,100960.73
2018-06-17T04:15:14.875Z,100963.61
2018-06-17T04:17:44.771Z,100962.79
2018-06-17T04:20:15.186Z,100973.39
2018-06-17T04:22:45.120Z,100966.25
2018-06-17T04:25:14.851Z,100968.72
2018-06-17T04:27:44.742Z,100967.29
2018-06-17T04:30:15.443Z,100976.78
2018-06-17T04:32:45.972Z,100975.47
2018-06-17T04:35:16.389Z,100974.91
2018-06-17T04:37:46.354Z,100971.44
2018-06-17T04:40:16.016Z,100978.39
2018-06-17T04:42:46.534Z,100977.59
2018-06-17T04:45:17.609Z,100970.14
2018-06-17T04:47:47.440Z,100980.00
2018-06-17T04:50:17.482Z,100976.34
2018-06-17T04:52:48.199Z,100975.70
2018-06-17T04:55:18.773Z,100975.64
2018-06-17T04:57:48.837Z,100982.14
2018-06-17T05:00:18.990Z,100982.48
2018-06-17T05:02:49.662Z,100986.64
2018-06-17T05:05:20.628Z,100992.05
2018-06-17T05:07:50.799Z,100989.30
2018-06-17T05:10:22.252Z,100992.72
2018-06-17T05:12:51.975Z,100994.75
2018-06-17T05:15:21.674Z,100995.95
2018-06-17T05:17:51.526Z,100997.59
2018-06-17T05:20:21.465Z,100997.36
2018-06-17T05:22:51.327Z,100997.16
2018-06-17T05:25:21.112Z,100996.88
2018-06-17T05:27:50.906Z,100997.09
2018-06-17T05:30:20.685Z,101003.63
2018-06-17T05:32:50.577Z,100993.93
2018-06-17T05:35:20.977Z,100994.69
2018-06-17T05:37:51.414Z,100995.29
2018-06-17T05:40:21.151Z,100998.84
2018-06-17T05:42:51.484Z,101000.78
2018-06-17T05:45:21.558Z,101002.64
2018-06-17T05:47:51.281Z,101001.75
2018-06-17T05:50:21.430Z,101003.20
2018-06-17T05:52:51.920Z,101009.77
2018-06-17T05:55:21.738Z,100997.18
2018-06-17T05:57:51.576Z,101010.17
2018-06-17T06:00:21.833Z,101009.46
2018-06-17T06:02:51.646Z,101015.38
2018-06-17T06:05:21.349Z,101015.77
2018-06-17T06:07:51.043Z,101016.63
2018-06-17T06:10:20.864Z,101025.39
2018-06-17T06:12:50.582Z,101030.95
2018-06-17T06:16:49.883Z,101029.68
2018-06-17T06:19:19.692Z,101024.67
2018-06-17T06:21:49.821Z,101035.50
2018-06-17T06:24:19.447Z,101033.79
2018-06-17T06:26:49.632Z,101030.81
2018-06-17T06:29:19.972Z,101029.88
2018-06-17T06:31:51.197Z,101026.14
2018-06-17T06:34:21.159Z,101024.02
2018-06-17T06:36:51.506Z,101031.56
2018-06-17T06:39:21.271Z,101023.23
2018-06-17T06:41:51.001Z,101021.73
2018-06-17T06:44:21.496Z,101026.08
2018-06-17T06:46:51.653Z,101025.33
2018-06-17T06:49:21.722Z,101031.52
2018-06-17T06:51:51.494Z,101028.50
2018-06-17T06:54:21.405Z,101029.87
2018-06-17T06:56:51.270Z,101031.21
2018-06-17T06:59:21.187Z,101022.27
2018-06-17T07:02:08.452Z,101037.70
2018-06-17T07:05:58.088Z,101035.09
2018-06-17T07:08:44.515Z,101036.36
2018-06-17T07:11:14.207Z,101048.05
2018-06-17T07:13:43.978Z,101050.69
2018-06-17T07:16:30.421Z,101045.65
2018-06-17T07:19:00.311Z,101043.17
2018-06-17T07:21:31.213Z,101045.50
2018-06-17T07:24:01.056Z,101047.81
2018-06-17T07:26:49.330Z,101051.48
2018-06-17T07:29:31.161Z,101044.20
2018-06-17T07:32:01.535Z,101053.20
2018-06-17T07:34:31.336Z,101044.28
2018-06-17T07:37:01.278Z,101049.91
2018-06-17T07:41:40.842Z,101048.91
2018-06-17T07:44:10.601Z,101045.79
2018-06-17T07:46:40.731Z,101038.81
2018-06-17T07:49:37.723Z,101045.86
2018-06-17T07:52:25.497Z,101045.48
2018-06-17T07:54:55.332Z,101042.46
2018-06-17T07:57:26.352Z,101038.62
2018-06-17T07:59:57.565Z,101042.42
2018-06-17T08:02:29.046Z,101043.57
2018-06-17T08:04:58.861Z,101040.13
2018-06-17T08:07:28.941Z,101033.32
2018-06-17T08:09:59.963Z,101040.27
2018-06-17T08:12:30.552Z,101033.57
2018-06-17T08:15:00.264Z,101034.42
2018-06-17T08:17:31.259Z,101036.61
2018-06-17T08:20:01.180Z,101029.50
2018-06-17T08:22:31.636Z,101031.30
2018-06-17T08:25:04.762Z,101032.45
2018-06-17T08:27:34.304Z,101025.23
2018-06-17T08:30:04.926Z,101029.56
2018-06-17T08:32:34.307Z,101028.14
2018-06-17T08:35:06.065Z,101039.12
2018-06-17T08:37:36.872Z,101036.30
2018-06-17T08:40:06.709Z,101035.94
2018-06-17T08:42:36.544Z,101042.30
2018-06-17T08:45:07.643Z,101040.43
2018-06-17T08:47:40.439Z,101051.77
2018-06-17T08:50:11.748Z,101037.11
2018-06-17T08:52:43.169Z,101037.72
2018-06-17T08:55:14.470Z,101036.37
2018-06-17T08:57:45.323Z,101043.78
2018-06-17T09:00:16.134Z,101042.67
2018-06-17T09:04:14.928Z,101034.76
2018-06-17T09:06:46.638Z,101039.82
2018-06-17T09:09:17.636Z,101037.13
2018-06-17T09:11:52.511Z,101030.13
2018-06-17T09:14:28.825Z,101039.81
2018-06-17T09:17:01.257Z,101035.88
2018-06-17T09:19:32.915Z,101037.61
2018-06-17T09:22:05.246Z,101033.20
2018-06-17T09:24:37.342Z,101036.53
2018-06-17T09:27:07.760Z,101037.52
2018-06-17T09:29:37.683Z,101041.18
2018-06-17T09:32:08.020Z,101038.92
2018-06-17T09:34:37.707Z,101037.16
2018-06-17T09:37:07.837Z,101025.86
2018-06-17T09:39:37.623Z,101038.25
2018-06-17T09:42:09.476Z,101032.42
2018-06-17T09:44:39.882Z,101034.50
2018-06-17T09:47:09.568Z,101049.88
2018-06-17T09:49:40.521Z,101040.09
2018-06-17T09:52:10.595Z,101041.77
2018-06-17T09:54:41.705Z,101038.95
2018-06-17T09:57:11.421Z,101034.27
2018-06-17T09:59:42.200Z,101033.08
2018-06-17T10:02:13.550Z,101031.91
2018-06-17T10:04:44.690Z,101037.73
2018-06-17T10:07:15.977Z,101039.67
2018-06-17T10:10:04.080Z,101041.70
2018-06-17T10:12:34.896Z,101034.03
2018-06-17T10:15:05.138Z,101040.41
2018-06-17T10:17:34.919Z,101034.13
2018-06-17T10:20:05.780Z,101037.13
2018-06-17T10:22:35.836Z,101030.20
2018-06-17T10:25:05.702Z,101032.20
2018-06-17T10:27:40.889Z,101032.37
2018-06-17T10:30:13.369Z,101028.84
2018-06-17T10:32:45.035Z,101034.69
2018-06-17T10:35:15.528Z,101040.08
2018-06-17T10:37:46.393Z,101041.33
2018-06-17T10:40:18.940Z,101038.91
2018-06-17T10:42:50.832Z,101036.89
2018-06-17T10:45:21.138Z,101033.87
2018-06-17T10:47:51.506Z,101033.34
2018-06-17T10:50:23.126Z,101036.87
2018-06-17T10:52:52.766Z,101048.06
2018-06-17T10:55:22.979Z,101050.68
2018-06-17T10:57:53.595Z,101054.59
2018-06-17T11:00:23.502Z,101060.69
2018-06-17T11:02:53.408Z,101049.37
2018-06-17T11:05:23.196Z,101057.70
2018-06-17T11:07:53.566Z,101053.91
2018-06-17T11:10:25.373Z,101058.09
2018-06-17T11:12:55.147Z,101062.95
2018-06-17T11:15:25.425Z,101047.80
2018-06-17T11:17:56.478Z,101050.66
2018-06-17T11:20:26.317Z,101045.15
2018-06-17T11:22:56.176Z,101053.73
2018-06-17T11:25:28.021Z,101060.59
2018-06-17T11:27:58.140Z,101047.51
2018-06-17T11:30:28.287Z,101051.58
2018-06-17T11:32:59.408Z,101056.64
2018-06-17T11:35:29.428Z,101053.63
2018-06-17T11:37:59.496Z,101069.50
2018-06-17T11:40:29.601Z,101056.36
2018-06-17T11:42:59.514Z,101055.92
2018-06-17T11:45:29.488Z,101056.30
2018-06-17T11:48:00.280Z,101069.20
2018-06-17T11:50:31.595Z,101059.02
2018-06-17T11:53:01.671Z,101056.17
2018-06-17T11:55:31.904Z,101069.91
2018-06-17T11:58:01.785Z,101070.50
2018-06-17T12:00:33.082Z,101077.67
2018-06-17T12:03:03.863Z,101062.52
2018-06-17T12:05:33.704Z,101061.94
2018-06-17T12:10:41.157Z,101073.34
2018-06-17T12:13:11.917Z,101085.23
2018-06-17T12:15:42.599Z,101067.83
2018-06-17T12:18:13.284Z,101076.73
2018-06-17T12:20:43.926Z,101074.73
2018-06-17T12:23:13.736Z,101070.05
2018-06-17T12:25:43.553Z,101064.58
2018-06-17T12:28:13.228Z,101074.34
2018-06-17T12:30:42.941Z,101076.27
2018-06-17T12:33:13.444Z,101079.62
2018-06-17T12:35:43.506Z,101073.79
2018-06-17T12:38:13.244Z,101075.45
2018-06-17T12:40:44.101Z,101071.34
2018-06-17T12:43:13.884Z,101069.72
2018-06-17T12:45:43.795Z,101062.70
2018-06-17T12:48:15.932Z,101084.36
2018-06-17T12:50:46.405Z,101068.20
2018-06-17T12:53:17.038Z,101077.09
2018-06-17T12:55:48.664Z,101071.95
2018-06-17T12:58:18.885Z,101078.59
2018-06-17T13:00:49.677Z,101070.80
2018-06-17T13:03:24.551Z,101074.48
2018-06-17T13:05:57.199Z,101077.22
2018-06-17T13:08:28.971Z,101076.18
2018-06-17T13:10:58.964Z,101075.39
2018-06-17T13:13:30.548Z,101087.98
2018-06-17T13:16:02.864Z,101088.95
2018-06-17T13:18:33.459Z,101088.03
2018-06-17T13:21:05.645Z,101095.71
2018-06-17T13:23:37.723Z,101096.55
2018-06-17T13:26:08.386Z,101094.25
2018-06-17T13:28:39.148Z,101089.02
2018-06-17T13:31:08.922Z,101087.93
2018-06-17T13:33:39.224Z,101085.59
2018-06-17T13:36:09.736Z,101086.84
2018-06-17T13:38:39.582Z,101093.80
2018-06-17T13:41:10.470Z,101099.42
2018-06-17T13:43:41.370Z,101099.27
2018-06-17T13:46:11.141Z,101093.16
2018-06-17T13:48:40.953Z,101097.63
2018-06-17T13:51:11.885Z,101099.82
2018-06-17T13:53:41.961Z,101099.39
2018-06-17T13:56:11.640Z,101109.55
2018-06-17T13:58:42.060Z,101108.69
2018-06-17T14:01:11.731Z,101109.28
2018-06-17T14:03:41.924Z,101117.42
2018-06-17T14:06:11.617Z,101114.92
2018-06-17T14:08:42.467Z,101118.47
2018-06-17T14:11:12.231Z,101116.73
2018-06-17T14:13:43.120Z,101130.33
2018-06-17T14:16:13.515Z,101127.61
2018-06-17T14:18:43.311Z,101135.69
2018-06-17T14:21:13.013Z,101136.67
2018-06-17T14:23:42.892Z,101132.94
2018-06-17T14:26:12.763Z,101135.56
2018-06-17T14:28:42.515Z,101147.16
2018-06-17T14:31:12.734Z,101147.23
2018-06-17T14:33:42.626Z,101144.91
2018-06-17T14:36:12.530Z,101151.84
2018-06-17T14:38:42.278Z,101149.41
2018-06-17T14:41:18.865Z,101151.92
2018-06-17T14:46:28.842Z,101173.23
2018-06-17T14:49:03.585Z,101173.63
2018-06-17T14:51:38.731Z,101175.41
2018-06-17T14:54:08.660Z,101171.53
2018-06-17T14:56:38.384Z,101172.06
2018-06-17T14:59:08.205Z,101172.11
2018-06-17T15:01:37.588Z,101170.80
2018-06-17T15:04:07.767Z,101167.99
2018-06-17T15:06:37.507Z,101180.41
2018-06-17T15:09:09.692Z,101167.38
2018-06-17T15:11:39.530Z,101159.52
2018-06-17T15:14:09.306Z,101158.75
2018-06-17T15:16:39.221Z,101161.77
2018-06-17T15:19:08.623Z,101166.23
2018-06-17T15:21:38.342Z,101173.83
2018-06-17T15:24:08.193Z,101165.97
2018-06-17T15:26:37.866Z,101156.30
2018-06-17T15:29:07.724Z,101159.42
2018-06-17T15:31:43.028Z,101162.30
2018-06-17T15:34:17.929Z,101152.37
2018-06-17T15:36:52.786Z,101158.00
2018-06-17T15:39:27.810Z,101159.65
2018-06-17T15:41:57.702Z,101162.70
2018-06-17T15:44:27.388Z,101164.91
2018-06-17T15:46:57.304Z,101172.37
2018-06-17T15:49:27.167Z,101175.98
2018-06-17T15:51:56.955Z,101165.29
2018-06-17T15:54:26.762Z,101175.28
2018-06-17T15:56:56.777Z,101177.23
2018-06-17T15:59:26.719Z,101176.97
2018-06-17T16:01:56.961Z,101178.38
2018-06-17T16:04:27.673Z,101182.66
2018-06-17T16:06:57.563Z,101178.95
2018-06-17T16:09:27.402Z,101173.10
2018-06-17T16:13:00.794Z,101173.70
2018-06-17T16:15:35.818Z,101167.70
2018-06-17T16:18:10.573Z,101171.63
2018-06-17T16:20:45.526Z,101170.02
2018-06-17T16:23:15.226Z,101160.41
2018-06-17T16:25:45.059Z,101169.43
2018-06-17T16:28:15.202Z,101164.33
2018-06-17T16:30:45.726Z,101167.99
2018-06-17T16:33:15.499Z,101168.68
2018-06-17T16:35:45.412Z,101166.16
2018-06-17T16:38:15.095Z,101159.42
2018-06-17T16:40:45.734Z,101163.70
2018-06-17T16:43:15.450Z,101164.61
2018-06-17T16:45:45.239Z,101162.52
2018-06-17T16:48:15.274Z,101163.35
2018-06-17T16:50:50.154Z,101163.94
2018-06-17T16:53:25.025Z,101165.20
2018-06-17T16:55:59.811Z,101162.91
2018-06-17T16:58:34.598Z,101160.83
2018-06-17T17:01:04.455Z,101154.61
2018-06-17T17:03:34.192Z,101165.20
2018-06-17T17:06:04.888Z,101159.13
2018-06-17T17:08:34.863Z,101166.31
2018-06-17T17:11:04.525Z,101168.15
2018-06-17T17:13:34.299Z,101173.70
2018-06-17T17:16:04.169Z,101166.59
2018-06-17T17:18:33.973Z,101169.44
2018-06-17T17:21:04.337Z,101171.64
2018-06-17T17:23:33.987Z,101175.11
2018-06-17T17:26:03.798Z,101178.01
2018-06-17T17:28:33.705Z,101176.44
2018-06-17T17:31:03.519Z,101184.08
2018-06-17T17:33:38.509Z,101189.11
2018-06-17T17:36:13.430Z,101189.68
2018-06-17T17:38:48.926Z,101194.38
2018-06-17T17:41:18.871Z,101200.95
2018-06-17T17:43:48.596Z,101203.28
2018-06-17T17:46:23.801Z,101203.33
2018-06-17T17:48:53.442Z,101197.16
2018-06-17T17:51:23.206Z,101203.16
2018-06-17T17:53:52.936Z,101203.41
2018-06-17T17:56:22.676Z,101196.88
2018-06-17T17:58:52.557Z,101206.47
2018-06-17T18:01:22.259Z,101199.12
2018-06-17T18:03:52.022Z,101205.77
2018-06-17T18:06:21.826Z,101204.75
2018-06-17T18:08:52.150Z,101206.30
2018-06-17T18:11:22.065Z,101210.80
2018-06-17T18:13:51.914Z,101217.66
2018-06-17T18:16:21.410Z,101220.60
2018-06-17T18:18:51.102Z,101226.64
2018-06-17T18:21:20.739Z,101223.45
2018-06-17T18:23:50.466Z,101224.36
2018-06-17T18:26:26.274Z,101227.09
2018-06-17T18:33:39.997Z,101221.86
2018-06-17T18:36:12.301Z,101218.11
2018-06-17T18:38:43.573Z,101221.01
2018-06-17T18:41:14.423Z,101216.76
2018-06-17T18:43:44.173Z,101212.95
2018-06-17T18:46:14.695Z,101216.94
2018-06-17T18:48:44.911Z,101219.63
2018-06-17T18:51:15.528Z,101221.42
2018-06-17T18:53:45.413Z,101219.95
2018-06-17T18:56:15.404Z,101223.69
2018-06-17T18:58:45.262Z,101222.91
2018-06-17T19:01:15.920Z,101226.98
2018-06-17T19:03:45.721Z,101230.28
2018-06-17T19:06:15.540Z,101233.30
2018-06-17T19:08:50.556Z,101237.14
2018-06-17T19:11:25.367Z,101235.39
2018-06-17T19:14:00.336Z,101240.61
2018-06-17T19:16:35.187Z,101239.69
2018-06-17T19:19:05.030Z,101244.91
2018-06-17T19:21:35.909Z,101243.31
2018-06-17T19:24:05.658Z,101253.87
2018-06-17T19:26:35.739Z,101246.08
2018-06-17T19:29:05.504Z,101246.59
2018-06-17T19:31:35.464Z,101249.20
2018-06-17T19:34:05.793Z,101249.32
2018-06-17T19:36:35.739Z,101249.32
2018-06-17T19:39:08.689Z,101251.97
2018-06-17T19:41:38.335Z,101251.59
2018-06-17T19:44:08.410Z,101251.59
2018-06-17T19:46:38.189Z,101251.03
2018-06-17T19:49:08.011Z,101257.14
2018-06-17T19:51:42.855Z,101251.84
2018-06-17T19:54:17.739Z,101248.78
2018-06-17T19:56:54.723Z,101255.83
2018-06-17T19:59:29.546Z,101260.97
2018-06-17T20:01:59.430Z,101257.16
2018-06-17T20:04:29.195Z,101254.00
2018-06-17T20:06:59.055Z,101253.42
2018-06-17T20:09:28.947Z,101247.45
2018-06-17T20:11:58.807Z,101261.63
2018-06-17T20:14:28.523Z,101262.41
2018-06-17T20:16:58.401Z,101264.98
2018-06-17T20:19:28.138Z,101268.45
2018-06-17T20:21:57.962Z,101271.10
2018-06-17T20:24:28.438Z,101266.77
2018-06-17T20:26:58.573Z,101268.19
2018-06-17T20:29:28.133Z,101272.79
2018-06-17T20:32:03.182Z,101267.64
2018-06-17T20:34:38.074Z,101267.02
2018-06-17T20:37:13.036Z,101266.81
2018-06-17T20:39:48.094Z,101264.66
2018-06-17T20:42:23.056Z,101266.37
2018-06-17T20:44:52.760Z,101272.03
2018-06-17T20:47:22.518Z,101275.91
2018-06-17T20:49:52.350Z,101271.72
2018-06-17T20:52:22.155Z,101273.53
2018-06-17T20:54:51.968Z,101276.17
2018-06-17T20:57:21.693Z,101282.28
2018-06-17T20:59:51.684Z,101279.55
2018-06-17T21:02:21.588Z,101290.63
2018-06-17T21:04:51.481Z,101293.23
2018-06-17T21:07:21.942Z,101298.92
2018-06-17T21:09:51.761Z,101299.62
2018-06-17T21:12:21.684Z,101297.38
2018-06-17T21:14:51.347Z,101299.56
2018-06-17T21:17:21.054Z,101303.86
2018-06-17T21:19:55.865Z,101309.86
2018-06-17T21:22:31.013Z,101313.43
2018-06-17T21:25:05.922Z,101313.56
2018-06-17T21:27:44.938Z,101321.92
2018-06-17T21:30:14.822Z,101318.11
2018-06-17T21:32:44.786Z,101318.67
2018-06-17T21:35:14.611Z,101321.34
2018-06-17T21:37:44.412Z,101318.01
2018-06-17T21:40:14.201Z,101327.48
2018-06-17T21:42:44.120Z,101331.01
2018-06-17T21:45:13.927Z,101325.06
2018-06-17T21:47:44.171Z,101331.99
2018-06-17T21:50:13.952Z,101327.22
2018-06-17T21:52:43.760Z,101332.44
2018-06-17T21:55:13.446Z,101326.81
2018-06-17T21:57:43.142Z,101333.83
2018-06-17T22:00:12.846Z,101334.69
2018-06-17T22:02:43.012Z,101333.92
2018-06-17T22:05:13.287Z,101337.72
2018-06-17T22:07:48.326Z,101349.85
2018-06-17T22:10:23.338Z,101349.50
2018-06-17T22:12:58.453Z,101353.73
2018-06-17T22:15:33.475Z,101351.16
2018-06-17T22:18:03.856Z,101349.66
2018-06-17T22:20:33.549Z,101341.45
2018-06-17T22:23:03.387Z,101350.16
2018-06-17T22:25:33.093Z,101350.27
2018-06-17T22:28:03.148Z,101351.59
2018-06-17T22:30:33.143Z,101354.27
2018-06-17T22:33:03.139Z,101354.69
2018-06-17T22:35:33.313Z,101353.41
2018-06-17T22:38:03.178Z,101360.36
2018-06-17T22:40:33.178Z,101356.95
2018-06-17T22:43:02.936Z,101362.61
2018-06-17T22:45:32.851Z,101360.48
2018-06-17T22:48:02.653Z,101359.34
2018-06-17T22:50:32.351Z,101366.91
2018-06-17T22:53:18.789Z,101370.29
2018-06-17T22:55:48.544Z,101375.81
2018-06-17T22:58:23.278Z,101372.93
2018-06-17T23:00:58.235Z,101371.73
2018-06-17T23:03:33.156Z,101382.70
2018-06-17T23:06:08.060Z,101374.41
2018-06-17T23:08:42.848Z,101377.44
2018-06-17T23:11:12.480Z,101387.65
2018-06-17T23:13:43.101Z,101389.44
2018-06-17T23:16:12.849Z,101386.84
2018-06-17T23:18:42.796Z,101392.58
2018-06-17T23:21:12.499Z,101394.38
2018-06-17T23:23:42.288Z,101390.84
2018-06-17T23:26:11.949Z,101389.70
2018-06-17T23:28:43.652Z,101395.86
2018-06-17T23:31:14.011Z,101391.77
2018-06-17T23:33:43.694Z,101388.87
2018-06-17T23:36:14.241Z,101393.41
2018-06-17T23:38:43.949Z,101395.73
2018-06-17T23:41:15.994Z,101392.77
2018-06-17T23:43:47.472Z,101398.83
2018-06-17T23:46:22.297Z,101397.82
2018-06-17T23:48:57.903Z,101391.12
2018-06-17T23:51:32.774Z,101390.68
2018-06-17T23:54:07.527Z,101392.64
2018-06-17T23:56:37.345Z,101393.06
2018-06-17T23:59:06.986Z,101402.46
